This is the latest recevied weather packets stored in our database for station/object OM7FX-15. If no packets are shown the sender has not sent any weather packets the latest 10 day(s).
| Time | Temp. | Humidity | Pressure | Rain* | Wind** | Luminosity | Snow |
|---|---|---|---|---|---|---|---|
| 1777269679 | 22.78° C | 42% | 977.8 hPa | - | - | - | - |
| 1777268779 | 22.78° C | 42% | 977.9 hPa | - | - | - | - |
| 1777267879 | 22.78° C | 42% | 977.9 hPa | - | - | - | - |
| 1777266979 | 22.78° C | 42% | 978 hPa | - | - | - | - |
| 1777266078 | 22.78° C | 47% | 978 hPa | - | - | - | - |
| 1777264278 | 22.78° C | 46% | 977.8 hPa | - | - | - | - |
| 1777263378 | 22.78° C | 45% | 977.7 hPa | - | - | - | - |
| 1777262478 | 22.78° C | 45% | 977.6 hPa | - | - | - | - |
| 1777261578 | 22.78° C | 45% | 977.5 hPa | - | - | - | - |
| 1777260678 | 22.78° C | 45% | 977.5 hPa | - | - | - | - |
| 1777259778 | 22.78° C | 45% | 977.4 hPa | - | - | - | - |
| 1777258878 | 22.78° C | 45% | 977.3 hPa | - | - | - | - |
| 1777257978 | 22.78° C | 45% | 977.2 hPa | - | - | - | - |
| 1777257078 | 22.78° C | 45% | 977.3 hPa | - | - | - | - |
| 1777256178 | 22.78° C | 45% | 977.2 hPa | - | - | - | - |
| 1777226475 | 23.89° C | 36% | 974.5 hPa | - | - | - | - |
| 1777223803 | 23.89° C | 34% | 973.9 hPa | - | - | - | - |
| 1777219302 | 23.89° C | 34% | 973.1 hPa | - | - | - | - |
| 1777217502 | 23.89° C | 32% | 973.3 hPa | - | - | - | - |
| 1777216602 | 23.89° C | 34% | 973.1 hPa | - | - | - | - |
| 1777215702 | 23.89° C | 39% | 973 hPa | - | - | - | - |
| 1777214802 | 23.89° C | 39% | 972.8 hPa | - | - | - | - |
| 1777213902 | 23.89° C | 39% | 972.8 hPa | - | - | - | - |
| 1777213002 | 23.89° C | 39% | 972.6 hPa | - | - | - | - |
| 1777212102 | 23.89° C | 38% | 972.8 hPa | - | - | - | - |
* Rain since midnight (hover to see other rain measurements)
** Current wind speed in m/s (hover to see current wind gust speed)